sensor_id;sensor_type;location;lat;lon;timestamp;P1;durP1;ratioP1;P2;durP2;ratioP2
68653;SDS011;55636;51.108;13.622;2023-08-20T00:00:34;14.18;;;12.88;;
68653;SDS011;55636;51.108;13.622;2023-08-20T00:01:37;15.52;;;13.98;;
68653;SDS011;55636;51.108;13.622;2023-08-20T00:02:43;14.80;;;13.50;;
68653;SDS011;55636;51.108;13.622;2023-08-20T00:03:48;15.20;;;13.70;;
68653;SDS011;55636;51.108;13.622;2023-08-20T00:04:51;14.60;;;13.13;;
68653;SDS011;55636;51.108;13.622;2023-08-20T00:05:56;14.68;;;13.15;;
68653;SDS011;55636;51.108;13.622;2023-08-20T00:06:59;14.43;;;13.13;;
68653;SDS011;55636;51.108;13.622;2023-08-20T00:08:01;14.25;;;12.85;;
68653;SDS011;55636;51.108;13.622;2023-08-20T00:09:04;14.25;;;12.95;;
68653;SDS011;55636;51.108;13.622;2023-08-20T00:10:09;13.55;;;12.45;;
68653;SDS011;55636;51.108;13.622;2023-08-20T00:11:12;14.23;;;12.77;;
68653;SDS011;55636;51.108;13.622;2023-08-20T00:12:15;14.13;;;12.70;;
68653;SDS011;55636;51.108;13.622;2023-08-20T00:13:17;14.65;;;13.25;;
68653;SDS011;55636;51.108;13.622;2023-08-20T00:14:20;14.43;;;13.13;;
68653;SDS011;55636;51.108;13.622;2023-08-20T00:15:22;14.10;;;12.80;;
68653;SDS011;55636;51.108;13.622;2023-08-20T00:16:28;13.85;;;12.50;;
68653;SDS011;55636;51.108;13.622;2023-08-20T00:17:31;14.18;;;12.77;;
68653;SDS011;55636;51.108;13.622;2023-08-20T00:18:34;13.82;;;12.52;;
68653;SDS011;55636;51.108;13.622;2023-08-20T00:19:40;14.43;;;12.23;;
68653;SDS011;55636;51.108;13.622;2023-08-20T00:20:42;15.18;;;13.00;;
68653;SDS011;55636;51.108;13.622;2023-08-20T00:21:47;13.48;;;12.07;;
68653;SDS011;55636;51.108;13.622;2023-08-20T00:22:50;13.75;;;12.48;;
68653;SDS011;55636;51.108;13.622;2023-08-20T00:23:53;14.32;;;12.75;;
68653;SDS011;55636;51.108;13.622;2023-08-20T00:24:55;13.15;;;11.82;;
68653;SDS011;55636;51.108;13.622;2023-08-20T00:25:58;12.90;;;11.80;;
68653;SDS011;55636;51.108;13.622;2023-08-20T00:27:01;13.57;;;12.18;;
68653;SDS011;55636;51.108;13.622;2023-08-20T00:28:04;13.70;;;12.38;;
68653;SDS011;55636;51.108;13.622;2023-08-20T00:29:06;13.98;;;12.68;;
68653;SDS011;55636;51.108;13.622;2023-08-20T00:30:10;13.98;;;12.65;;
68653;SDS011;55636;51.108;13.622;2023-08-20T00:31:13;14.05;;;12.63;;
68653;SDS011;55636;51.108;13.622;2023-08-20T00:32:16;13.70;;;12.40;;
68653;SDS011;55636;51.108;13.622;2023-08-20T00:33:19;13.35;;;12.15;;
68653;SDS011;55636;51.108;13.622;2023-08-20T00:34:21;13.38;;;12.18;;
68653;SDS011;55636;51.108;13.622;2023-08-20T00:35:24;13.43;;;12.23;;
68653;SDS011;55636;51.108;13.622;2023-08-20T00:36:26;13.82;;;12.52;;
68653;SDS011;55636;51.108;13.622;2023-08-20T00:37:29;13.32;;;12.07;;
68653;SDS011;55636;51.108;13.622;2023-08-20T00:38:33;14.30;;;12.80;;
68653;SDS011;55636;51.108;13.622;2023-08-20T00:39:36;14.05;;;12.65;;
68653;SDS011;55636;51.108;13.622;2023-08-20T00:40:38;13.43;;;12.20;;
68653;SDS011;55636;51.108;13.622;2023-08-20T00:41:41;13.45;;;11.65;;
68653;SDS011;55636;51.108;13.622;2023-08-20T00:42:43;13.60;;;12.38;;
68653;SDS011;55636;51.108;13.622;2023-08-20T00:43:45;12.77;;;11.60;;
68653;SDS011;55636;51.108;13.622;2023-08-20T00:44:48;14.20;;;12.70;;
68653;SDS011;55636;51.108;13.622;2023-08-20T00:45:50;13.52;;;12.18;;
68653;SDS011;55636;51.108;13.622;2023-08-20T00:46:53;13.77;;;12.48;;
68653;SDS011;55636;51.108;13.622;2023-08-20T00:47:55;13.52;;;12.18;;
68653;SDS011;55636;51.108;13.622;2023-08-20T00:48:58;13.50;;;12.25;;
68653;SDS011;55636;51.108;13.622;2023-08-20T00:50:02;14.20;;;12.80;;
68653;SDS011;55636;51.108;13.622;2023-08-20T00:51:08;13.35;;;12.00;;
68653;SDS011;55636;51.108;13.622;2023-08-20T00:52:10;13.25;;;12.15;;
68653;SDS011;55636;51.108;13.622;2023-08-20T00:53:14;13.15;;;11.95;;
68653;SDS011;55636;51.108;13.622;2023-08-20T00:54:17;13.73;;;12.38;;
68653;SDS011;55636;51.108;13.622;2023-08-20T00:55:19;13.30;;;12.02;;
68653;SDS011;55636;51.108;13.622;2023-08-20T00:56:22;13.27;;;12.00;;
68653;SDS011;55636;51.108;13.622;2023-08-20T00:57:24;13.65;;;12.40;;
68653;SDS011;55636;51.108;13.622;2023-08-20T00:58:28;13.38;;;12.18;;
68653;SDS011;55636;51.108;13.622;2023-08-20T00:59:32;13.88;;;12.48;;
68653;SDS011;55636;51.108;13.622;2023-08-20T01:00:35;14.07;;;12.77;;
68653;SDS011;55636;51.108;13.622;2023-08-20T01:01:38;12.90;;;11.70;;
68653;SDS011;55636;51.108;13.622;2023-08-20T01:02:40;12.68;;;11.38;;
68653;SDS011;55636;51.108;13.622;2023-08-20T01:03:45;13.40;;;12.10;;
68653;SDS011;55636;51.108;13.622;2023-08-20T01:04:48;13.93;;;12.50;;
68653;SDS011;55636;51.108;13.622;2023-08-20T01:05:53;13.88;;;12.50;;
68653;SDS011;55636;51.108;13.622;2023-08-20T01:07:18;12.65;;;11.55;;
68653;SDS011;55636;51.108;13.622;2023-08-20T01:08:29;13.18;;;11.95;;
68653;SDS011;55636;51.108;13.622;2023-08-20T01:11:26;13.55;;;12.35;;
68653;SDS011;55636;51.108;13.622;2023-08-20T01:12:40;13.38;;;12.23;;
68653;SDS011;55636;51.108;13.622;2023-08-20T01:13:43;13.43;;;12.23;;
68653;SDS011;55636;51.108;13.622;2023-08-20T01:14:45;13.80;;;12.45;;
68653;SDS011;55636;51.108;13.622;2023-08-20T01:15:48;13.30;;;12.05;;
68653;SDS011;55636;51.108;13.622;2023-08-20T01:16:51;13.85;;;12.50;;
68653;SDS011;55636;51.108;13.622;2023-08-20T01:17:53;13.38;;;11.98;;
68653;SDS011;55636;51.108;13.622;2023-08-20T01:18:55;13.60;;;12.23;;
68653;SDS011;55636;51.108;13.622;2023-08-20T01:19:58;13.00;;;11.90;;
68653;SDS011;55636;51.108;13.622;2023-08-20T01:21:02;14.30;;;12.45;;
68653;SDS011;55636;51.108;13.622;2023-08-20T01:27:05;14.00;;;12.60;;
68653;SDS011;55636;51.108;13.622;2023-08-20T01:28:29;13.57;;;12.20;;
68653;SDS011;55636;51.108;13.622;2023-08-20T01:29:33;13.18;;;12.07;;
68653;SDS011;55636;51.108;13.622;2023-08-20T01:30:38;13.63;;;12.32;;
68653;SDS011;55636;51.108;13.622;2023-08-20T01:31:40;14.00;;;12.70;;
68653;SDS011;55636;51.108;13.622;2023-08-20T01:32:44;13.32;;;12.13;;
68653;SDS011;55636;51.108;13.622;2023-08-20T01:33:48;13.63;;;12.45;;
68653;SDS011;55636;51.108;13.622;2023-08-20T01:34:51;13.25;;;12.07;;
68653;SDS011;55636;51.108;13.622;2023-08-20T01:35:54;13.05;;;11.85;;
68653;SDS011;55636;51.108;13.622;2023-08-20T01:36:57;13.52;;;12.20;;
68653;SDS011;55636;51.108;13.622;2023-08-20T01:37:59;13.73;;;12.40;;
68653;SDS011;55636;51.108;13.622;2023-08-20T01:39:01;13.35;;;12.25;;
68653;SDS011;55636;51.108;13.622;2023-08-20T01:40:07;13.35;;;12.15;;
68653;SDS011;55636;51.108;13.622;2023-08-20T01:41:13;13.20;;;12.10;;
68653;SDS011;55636;51.108;13.622;2023-08-20T01:42:15;13.80;;;12.50;;
68653;SDS011;55636;51.108;13.622;2023-08-20T01:43:18;13.82;;;12.52;;
68653;SDS011;55636;51.108;13.622;2023-08-20T01:44:20;13.48;;;12.27;;
68653;SDS011;55636;51.108;13.622;2023-08-20T01:45:23;13.20;;;11.90;;
68653;SDS011;55636;51.108;13.622;2023-08-20T01:46:25;14.05;;;12.68;;
68653;SDS011;55636;51.108;13.622;2023-08-20T01:47:28;13.20;;;11.98;;
68653;SDS011;55636;51.108;13.622;2023-08-20T01:48:30;13.45;;;12.15;;
68653;SDS011;55636;51.108;13.622;2023-08-20T01:49:32;14.18;;;12.70;;
68653;SDS011;55636;51.108;13.622;2023-08-20T01:50:35;13.73;;;12.15;;
68653;SDS011;55636;51.108;13.622;2023-08-20T01:51:39;13.73;;;12.45;;
68653;SDS011;55636;51.108;13.622;2023-08-20T01:52:41;14.07;;;12.77;;
68653;SDS011;55636;51.108;13.622;2023-08-20T01:53:43;13.60;;;12.40;;
68653;SDS011;55636;51.108;13.622;2023-08-20T01:54:47;13.93;;;12.52;;
68653;SDS011;55636;51.108;13.622;2023-08-20T01:55:50;17.25;;;12.35;;
68653;SDS011;55636;51.108;13.622;2023-08-20T01:56:53;14.27;;;12.77;;
68653;SDS011;55636;51.108;13.622;2023-08-20T01:57:55;12.73;;;11.63;;
68653;SDS011;55636;51.108;13.622;2023-08-20T01:58:57;14.20;;;12.85;;
68653;SDS011;55636;51.108;13.622;2023-08-20T02:00:00;13.48;;;12.27;;
68653;SDS011;55636;51.108;13.622;2023-08-20T02:01:14;13.52;;;12.18;;
68653;SDS011;55636;51.108;13.622;2023-08-20T02:02:16;13.57;;;12.35;;
68653;SDS011;55636;51.108;13.622;2023-08-20T02:03:19;14.60;;;13.20;;
68653;SDS011;55636;51.108;13.622;2023-08-20T02:04:22;14.30;;;12.90;;
68653;SDS011;55636;51.108;13.622;2023-08-20T02:05:24;13.70;;;12.60;;
68653;SDS011;55636;51.108;13.622;2023-08-20T02:06:27;14.13;;;12.82;;
68653;SDS011;55636;51.108;13.622;2023-08-20T02:07:30;13.73;;;12.32;;
68653;SDS011;55636;51.108;13.622;2023-08-20T02:08:34;14.05;;;12.65;;
68653;SDS011;55636;51.108;13.622;2023-08-20T02:09:36;13.77;;;12.38;;
68653;SDS011;55636;51.108;13.622;2023-08-20T02:10:39;13.52;;;12.25;;
68653;SDS011;55636;51.108;13.622;2023-08-20T02:11:41;13.98;;;12.68;;
68653;SDS011;55636;51.108;13.622;2023-08-20T02:12:44;13.75;;;12.55;;
68653;SDS011;55636;51.108;13.622;2023-08-20T02:13:46;14.45;;;13.05;;
68653;SDS011;55636;51.108;13.622;2023-08-20T02:14:49;14.85;;;13.35;;
68653;SDS011;55636;51.108;13.622;2023-08-20T02:16:02;14.80;;;13.20;;
68653;SDS011;55636;51.108;13.622;2023-08-20T02:17:07;14.80;;;13.43;;
68653;SDS011;55636;51.108;13.622;2023-08-20T02:18:10;14.13;;;12.82;;
68653;SDS011;55636;51.108;13.622;2023-08-20T02:19:13;13.80;;;12.50;;
68653;SDS011;55636;51.108;13.622;2023-08-20T02:20:16;14.30;;;12.95;;
68653;SDS011;55636;51.108;13.622;2023-08-20T02:21:18;14.45;;;13.05;;
68653;SDS011;55636;51.108;13.622;2023-08-20T02:22:20;14.52;;;13.18;;
68653;SDS011;55636;51.108;13.622;2023-08-20T02:23:23;15.07;;;13.48;;
68653;SDS011;55636;51.108;13.622;2023-08-20T02:24:26;13.70;;;12.50;;
68653;SDS011;55636;51.108;13.622;2023-08-20T02:25:28;13.95;;;12.75;;
68653;SDS011;55636;51.108;13.622;2023-08-20T02:26:31;14.35;;;13.00;;
68653;SDS011;55636;51.108;13.622;2023-08-20T02:27:33;13.30;;;12.10;;
68653;SDS011;55636;51.108;13.622;2023-08-20T02:28:36;13.57;;;12.38;;
68653;SDS011;55636;51.108;13.622;2023-08-20T02:29:39;14.35;;;13.05;;
68653;SDS011;55636;51.108;13.622;2023-08-20T02:30:42;14.07;;;12.88;;
68653;SDS011;55636;51.108;13.622;2023-08-20T02:31:46;13.85;;;12.65;;
68653;SDS011;55636;51.108;13.622;2023-08-20T02:32:50;14.10;;;12.73;;
68653;SDS011;55636;51.108;13.622;2023-08-20T02:33:53;13.73;;;12.23;;
68653;SDS011;55636;51.108;13.622;2023-08-20T02:34:56;13.93;;;12.50;;
68653;SDS011;55636;51.108;13.622;2023-08-20T02:36:03;14.13;;;12.82;;
68653;SDS011;55636;51.108;13.622;2023-08-20T02:37:06;13.95;;;12.65;;
68653;SDS011;55636;51.108;13.622;2023-08-20T02:38:09;14.25;;;12.75;;
68653;SDS011;55636;51.108;13.622;2023-08-20T02:39:12;13.98;;;12.63;;
68653;SDS011;55636;51.108;13.622;2023-08-20T02:40:16;13.88;;;12.57;;
68653;SDS011;55636;51.108;13.622;2023-08-20T02:41:18;15.27;;;12.43;;
68653;SDS011;55636;51.108;13.622;2023-08-20T02:42:21;14.35;;;12.85;;
68653;SDS011;55636;51.108;13.622;2023-08-20T02:43:23;14.32;;;13.02;;
68653;SDS011;55636;51.108;13.622;2023-08-20T02:44:26;13.90;;;12.60;;
68653;SDS011;55636;51.108;13.622;2023-08-20T02:45:28;14.35;;;12.98;;
68653;SDS011;55636;51.108;13.622;2023-08-20T02:46:31;14.40;;;12.65;;
68653;SDS011;55636;51.108;13.622;2023-08-20T02:47:33;13.40;;;12.20;;
68653;SDS011;55636;51.108;13.622;2023-08-20T02:48:36;13.73;;;12.52;;
68653;SDS011;55636;51.108;13.622;2023-08-20T02:49:39;14.45;;;12.82;;
68653;SDS011;55636;51.108;13.622;2023-08-20T02:50:41;13.50;;;12.23;;
68653;SDS011;55636;51.108;13.622;2023-08-20T02:51:43;14.18;;;12.77;;
68653;SDS011;55636;51.108;13.622;2023-08-20T02:52:46;13.30;;;12.10;;
68653;SDS011;55636;51.108;13.622;2023-08-20T02:53:48;14.27;;;12.82;;
68653;SDS011;55636;51.108;13.622;2023-08-20T02:54:51;14.52;;;13.20;;
68653;SDS011;55636;51.108;13.622;2023-08-20T02:55:53;14.23;;;12.73;;
68653;SDS011;55636;51.108;13.622;2023-08-20T02:56:56;14.38;;;13.07;;
68653;SDS011;55636;51.108;13.622;2023-08-20T02:57:59;14.10;;;12.73;;
68653;SDS011;55636;51.108;13.622;2023-08-20T02:59:01;14.88;;;13.38;;
68653;SDS011;55636;51.108;13.622;2023-08-20T03:00:04;14.77;;;13.48;;
68653;SDS011;55636;51.108;13.622;2023-08-20T03:01:06;14.30;;;12.90;;
68653;SDS011;55636;51.108;13.622;2023-08-20T03:02:19;14.00;;;12.70;;
68653;SDS011;55636;51.108;13.622;2023-08-20T03:03:21;14.93;;;13.52;;
68653;SDS011;55636;51.108;13.622;2023-08-20T03:04:23;14.80;;;13.27;;
68653;SDS011;55636;51.108;13.622;2023-08-20T03:05:26;14.73;;;13.40;;
68653;SDS011;55636;51.108;13.622;2023-08-20T03:06:28;13.95;;;12.65;;
68653;SDS011;55636;51.108;13.622;2023-08-20T03:07:31;14.48;;;12.98;;
68653;SDS011;55636;51.108;13.622;2023-08-20T03:08:34;13.75;;;12.45;;
68653;SDS011;55636;51.108;13.622;2023-08-20T03:09:37;13.68;;;12.43;;
68653;SDS011;55636;51.108;13.622;2023-08-20T03:10:39;14.23;;;12.82;;
68653;SDS011;55636;51.108;13.622;2023-08-20T03:11:41;13.77;;;12.38;;
68653;SDS011;55636;51.108;13.622;2023-08-20T03:12:45;14.40;;;13.02;;
68653;SDS011;55636;51.108;13.622;2023-08-20T03:13:47;14.48;;;13.18;;
68653;SDS011;55636;51.108;13.622;2023-08-20T03:14:49;13.60;;;12.40;;
68653;SDS011;55636;51.108;13.622;2023-08-20T03:15:52;14.60;;;13.20;;
68653;SDS011;55636;51.108;13.622;2023-08-20T03:16:54;14.27;;;12.95;;
68653;SDS011;55636;51.108;13.622;2023-08-20T03:17:56;14.70;;;13.20;;
68653;SDS011;55636;51.108;13.622;2023-08-20T03:18:59;14.07;;;12.77;;
68653;SDS011;55636;51.108;13.622;2023-08-20T03:20:01;13.77;;;12.50;;
68653;SDS011;55636;51.108;13.622;2023-08-20T03:21:08;14.02;;;12.73;;
68653;SDS011;55636;51.108;13.622;2023-08-20T03:22:10;13.68;;;12.43;;
68653;SDS011;55636;51.108;13.622;2023-08-20T03:23:12;13.50;;;12.20;;
68653;SDS011;55636;51.108;13.622;2023-08-20T03:24:15;13.32;;;12.23;;
68653;SDS011;55636;51.108;13.622;2023-08-20T03:25:17;12.77;;;11.48;;
68653;SDS011;55636;51.108;13.622;2023-08-20T03:26:20;13.05;;;11.90;;
68653;SDS011;55636;51.108;13.622;2023-08-20T03:27:22;12.88;;;11.70;;
68653;SDS011;55636;51.108;13.622;2023-08-20T03:28:24;13.13;;;11.93;;
68653;SDS011;55636;51.108;13.622;2023-08-20T03:29:28;13.48;;;12.18;;
68653;SDS011;55636;51.108;13.622;2023-08-20T03:30:30;12.93;;;11.63;;
68653;SDS011;55636;51.108;13.622;2023-08-20T03:31:33;13.40;;;12.05;;
68653;SDS011;55636;51.108;13.622;2023-08-20T03:32:36;13.13;;;11.88;;
68653;SDS011;55636;51.108;13.622;2023-08-20T03:33:38;12.80;;;11.50;;
68653;SDS011;55636;51.108;13.622;2023-08-20T03:34:40;12.82;;;11.63;;
68653;SDS011;55636;51.108;13.622;2023-08-20T03:35:43;13.27;;;11.45;;
68653;SDS011;55636;51.108;13.622;2023-08-20T03:36:47;12.82;;;11.65;;
68653;SDS011;55636;51.108;13.622;2023-08-20T03:37:49;12.38;;;11.18;;
68653;SDS011;55636;51.108;13.622;2023-08-20T03:38:51;12.65;;;11.50;;
68653;SDS011;55636;51.108;13.622;2023-08-20T03:39:56;11.55;;;10.45;;
68653;SDS011;55636;51.108;13.622;2023-08-20T03:40:58;12.55;;;11.30;;
68653;SDS011;55636;51.108;13.622;2023-08-20T03:42:00;12.35;;;11.25;;
68653;SDS011;55636;51.108;13.622;2023-08-20T03:43:03;12.63;;;11.27;;
68653;SDS011;55636;51.108;13.622;2023-08-20T03:44:05;12.60;;;11.40;;
68653;SDS011;55636;51.108;13.622;2023-08-20T03:45:08;11.93;;;10.77;;
68653;SDS011;55636;51.108;13.622;2023-08-20T03:46:11;11.52;;;10.45;;
68653;SDS011;55636;51.108;13.622;2023-08-20T03:47:13;12.73;;;10.85;;
68653;SDS011;55636;51.108;13.622;2023-08-20T03:48:16;11.43;;;10.43;;
68653;SDS011;55636;51.108;13.622;2023-08-20T03:49:19;12.75;;;10.50;;
68653;SDS011;55636;51.108;13.622;2023-08-20T03:50:21;11.55;;;10.40;;
68653;SDS011;55636;51.108;13.622;2023-08-20T03:51:23;11.23;;;10.18;;
68653;SDS011;55636;51.108;13.622;2023-08-20T03:52:26;11.25;;;10.10;;
68653;SDS011;55636;51.108;13.622;2023-08-20T03:53:28;11.15;;;10.15;;
68653;SDS011;55636;51.108;13.622;2023-08-20T03:54:30;10.80;;;9.63;;
68653;SDS011;55636;51.108;13.622;2023-08-20T03:55:33;11.25;;;9.57;;
68653;SDS011;55636;51.108;13.622;2023-08-20T03:56:35;10.85;;;9.75;;
68653;SDS011;55636;51.108;13.622;2023-08-20T03:57:38;10.18;;;9.13;;
68653;SDS011;55636;51.108;13.622;2023-08-20T03:58:41;10.30;;;9.30;;
68653;SDS011;55636;51.108;13.622;2023-08-20T03:59:44;11.82;;;9.32;;
68653;SDS011;55636;51.108;13.622;2023-08-20T04:00:48;10.00;;;9.00;;
68653;SDS011;55636;51.108;13.622;2023-08-20T04:01:50;10.00;;;9.07;;
68653;SDS011;55636;51.108;13.622;2023-08-20T04:02:52;9.88;;;8.90;;
68653;SDS011;55636;51.108;13.622;2023-08-20T04:03:55;10.40;;;9.40;;
68653;SDS011;55636;51.108;13.622;2023-08-20T04:04:57;12.35;;;9.77;;
68653;SDS011;55636;51.108;13.622;2023-08-20T04:06:01;11.00;;;9.50;;
68653;SDS011;55636;51.108;13.622;2023-08-20T04:07:04;11.05;;;9.93;;
68653;SDS011;55636;51.108;13.622;2023-08-20T04:08:06;11.02;;;10.02;;
68653;SDS011;55636;51.108;13.622;2023-08-20T04:09:09;10.75;;;9.75;;
68653;SDS011;55636;51.108;13.622;2023-08-20T04:10:11;10.43;;;9.25;;
68653;SDS011;55636;51.108;13.622;2023-08-20T04:11:14;10.82;;;9.82;;
68653;SDS011;55636;51.108;13.622;2023-08-20T04:12:16;10.65;;;9.65;;
68653;SDS011;55636;51.108;13.622;2023-08-20T04:13:19;10.90;;;9.82;;
68653;SDS011;55636;51.108;13.622;2023-08-20T04:14:21;10.65;;;9.55;;
68653;SDS011;55636;51.108;13.622;2023-08-20T04:15:24;11.18;;;10.10;;
68653;SDS011;55636;51.108;13.622;2023-08-20T04:16:27;10.07;;;9.07;;
68653;SDS011;55636;51.108;13.622;2023-08-20T04:17:31;10.57;;;9.40;;
68653;SDS011;55636;51.108;13.622;2023-08-20T04:18:34;10.23;;;9.23;;
68653;SDS011;55636;51.108;13.622;2023-08-20T04:19:36;10.45;;;9.50;;
68653;SDS011;55636;51.108;13.622;2023-08-20T04:20:38;10.60;;;9.50;;
68653;SDS011;55636;51.108;13.622;2023-08-20T04:21:41;10.23;;;9.13;;
68653;SDS011;55636;51.108;13.622;2023-08-20T04:22:44;10.25;;;9.35;;
68653;SDS011;55636;51.108;13.622;2023-08-20T04:23:47;10.50;;;9.50;;
68653;SDS011;55636;51.108;13.622;2023-08-20T04:24:50;9.73;;;8.80;;
68653;SDS011;55636;51.108;13.622;2023-08-20T04:25:52;10.68;;;9.68;;
68653;SDS011;55636;51.108;13.622;2023-08-20T04:26:55;9.70;;;8.77;;
68653;SDS011;55636;51.108;13.622;2023-08-20T04:28:01;9.68;;;8.70;;
68653;SDS011;55636;51.108;13.622;2023-08-20T04:29:04;11.45;;;9.50;;
68653;SDS011;55636;51.108;13.622;2023-08-20T04:30:06;10.27;;;9.30;;
68653;SDS011;55636;51.108;13.622;2023-08-20T04:31:09;10.10;;;9.20;;
68653;SDS011;55636;51.108;13.622;2023-08-20T04:32:21;10.50;;;9.60;;
68653;SDS011;55636;51.108;13.622;2023-08-20T04:33:24;10.57;;;9.57;;
68653;SDS011;55636;51.108;13.622;2023-08-20T04:34:27;10.50;;;9.43;;
68653;SDS011;55636;51.108;13.622;2023-08-20T04:35:30;10.70;;;9.60;;
68653;SDS011;55636;51.108;13.622;2023-08-20T04:36:33;11.10;;;9.65;;
68653;SDS011;55636;51.108;13.622;2023-08-20T04:37:35;10.70;;;9.70;;
68653;SDS011;55636;51.108;13.622;2023-08-20T04:38:38;10.30;;;9.40;;
68653;SDS011;55636;51.108;13.622;2023-08-20T04:39:40;11.10;;;9.95;;
68653;SDS011;55636;51.108;13.622;2023-08-20T04:40:45;10.52;;;9.55;;
68653;SDS011;55636;51.108;13.622;2023-08-20T04:41:48;9.25;;;8.35;;
68653;SDS011;55636;51.108;13.622;2023-08-20T04:42:52;9.88;;;8.88;;
68653;SDS011;55636;51.108;13.622;2023-08-20T04:43:55;10.40;;;9.40;;
68653;SDS011;55636;51.108;13.622;2023-08-20T04:45:00;9.77;;;8.88;;
68653;SDS011;55636;51.108;13.622;2023-08-20T04:46:03;9.75;;;8.95;;
68653;SDS011;55636;51.108;13.622;2023-08-20T04:47:08;9.98;;;8.82;;
68653;SDS011;55636;51.108;13.622;2023-08-20T04:48:13;10.25;;;9.27;;
68653;SDS011;55636;51.108;13.622;2023-08-20T04:49:15;10.05;;;8.88;;
68653;SDS011;55636;51.108;13.622;2023-08-20T04:50:18;9.20;;;8.40;;
68653;SDS011;55636;51.108;13.622;2023-08-20T04:51:22;10.98;;;9.32;;
68653;SDS011;55636;51.108;13.622;2023-08-20T04:52:26;9.52;;;8.32;;
68653;SDS011;55636;51.108;13.622;2023-08-20T04:53:28;9.75;;;8.82;;
68653;SDS011;55636;51.108;13.622;2023-08-20T04:54:31;9.93;;;8.85;;
68653;SDS011;55636;51.108;13.622;2023-08-20T04:55:33;9.93;;;8.88;;
68653;SDS011;55636;51.108;13.622;2023-08-20T04:56:36;10.18;;;9.20;;
68653;SDS011;55636;51.108;13.622;2023-08-20T04:57:38;9.57;;;8.68;;
68653;SDS011;55636;51.108;13.622;2023-08-20T04:58:41;9.77;;;8.88;;
68653;SDS011;55636;51.108;13.622;2023-08-20T04:59:44;10.43;;;9.15;;
68653;SDS011;55636;51.108;13.622;2023-08-20T05:01:05;9.50;;;8.40;;
68653;SDS011;55636;51.108;13.622;2023-08-20T05:02:09;9.40;;;8.50;;
68653;SDS011;55636;51.108;13.622;2023-08-20T05:03:17;9.85;;;8.95;;
68653;SDS011;55636;51.108;13.622;2023-08-20T05:04:20;10.00;;;9.00;;
68653;SDS011;55636;51.108;13.622;2023-08-20T05:05:22;8.95;;;8.18;;
68653;SDS011;55636;51.108;13.622;2023-08-20T05:06:25;9.27;;;8.48;;
68653;SDS011;55636;51.108;13.622;2023-08-20T05:07:27;9.55;;;8.65;;
68653;SDS011;55636;51.108;13.622;2023-08-20T05:08:30;9.48;;;8.63;;
68653;SDS011;55636;51.108;13.622;2023-08-20T05:09:32;9.35;;;8.20;;
68653;SDS011;55636;51.108;13.622;2023-08-20T05:10:35;9.43;;;8.48;;
68653;SDS011;55636;51.108;13.622;2023-08-20T05:11:39;8.77;;;7.97;;
68653;SDS011;55636;51.108;13.622;2023-08-20T05:12:41;9.80;;;8.80;;
68653;SDS011;55636;51.108;13.622;2023-08-20T05:13:44;9.13;;;8.23;;
68653;SDS011;55636;51.108;13.622;2023-08-20T05:14:47;9.48;;;8.57;;
68653;SDS011;55636;51.108;13.622;2023-08-20T05:15:50;9.23;;;8.30;;
68653;SDS011;55636;51.108;13.622;2023-08-20T05:16:52;9.38;;;8.48;;
68653;SDS011;55636;51.108;13.622;2023-08-20T05:17:55;9.20;;;8.40;;
68653;SDS011;55636;51.108;13.622;2023-08-20T05:18:57;11.13;;;8.98;;
68653;SDS011;55636;51.108;13.622;2023-08-20T05:20:00;9.02;;;8.20;;
68653;SDS011;55636;51.108;13.622;2023-08-20T05:21:03;10.57;;;8.43;;
68653;SDS011;55636;51.108;13.622;2023-08-20T05:22:06;12.07;;;8.55;;
68653;SDS011;55636;51.108;13.622;2023-08-20T05:23:10;8.73;;;8.02;;
68653;SDS011;55636;51.108;13.622;2023-08-20T05:24:12;9.50;;;8.50;;
68653;SDS011;55636;51.108;13.622;2023-08-20T05:25:14;10.52;;;8.70;;
68653;SDS011;55636;51.108;13.622;2023-08-20T05:26:17;9.70;;;8.70;;
68653;SDS011;55636;51.108;13.622;2023-08-20T05:27:20;9.30;;;8.40;;
68653;SDS011;55636;51.108;13.622;2023-08-20T05:28:25;8.80;;;8.00;;
68653;SDS011;55636;51.108;13.622;2023-08-20T05:29:28;9.95;;;8.48;;
68653;SDS011;55636;51.108;13.622;2023-08-20T05:30:30;9.32;;;8.43;;
68653;SDS011;55636;51.108;13.622;2023-08-20T05:31:33;9.98;;;8.98;;
68653;SDS011;55636;51.108;13.622;2023-08-20T05:32:35;10.60;;;9.07;;
68653;SDS011;55636;51.108;13.622;2023-08-20T05:33:38;9.48;;;8.57;;
68653;SDS011;55636;51.108;13.622;2023-08-20T05:34:41;9.38;;;8.48;;
68653;SDS011;55636;51.108;13.622;2023-08-20T05:35:44;9.15;;;8.25;;
68653;SDS011;55636;51.108;13.622;2023-08-20T05:36:46;10.23;;;8.88;;
68653;SDS011;55636;51.108;13.622;2023-08-20T05:37:49;9.48;;;8.57;;
68653;SDS011;55636;51.108;13.622;2023-08-20T05:38:51;9.60;;;8.68;;
68653;SDS011;55636;51.108;13.622;2023-08-20T05:39:53;9.25;;;8.45;;
68653;SDS011;55636;51.108;13.622;2023-08-20T05:40:56;9.07;;;8.27;;
68653;SDS011;55636;51.108;13.622;2023-08-20T05:41:58;9.48;;;8.50;;
68653;SDS011;55636;51.108;13.622;2023-08-20T05:43:01;8.75;;;7.90;;
68653;SDS011;55636;51.108;13.622;2023-08-20T05:44:04;10.52;;;8.43;;
68653;SDS011;55636;51.108;13.622;2023-08-20T05:45:07;8.77;;;7.90;;
68653;SDS011;55636;51.108;13.622;2023-08-20T05:46:10;9.52;;;8.57;;
68653;SDS011;55636;51.108;13.622;2023-08-20T05:47:12;13.88;;;8.88;;
68653;SDS011;55636;51.108;13.622;2023-08-20T05:48:15;8.57;;;7.88;;
68653;SDS011;55636;51.108;13.622;2023-08-20T05:49:18;9.02;;;8.15;;
68653;SDS011;55636;51.108;13.622;2023-08-20T05:50:20;9.30;;;8.38;;
68653;SDS011;55636;51.108;13.622;2023-08-20T05:51:23;10.07;;;8.73;;
68653;SDS011;55636;51.108;13.622;2023-08-20T05:52:25;9.15;;;8.25;;
68653;SDS011;55636;51.108;13.622;2023-08-20T05:53:27;9.27;;;8.30;;
68653;SDS011;55636;51.108;13.622;2023-08-20T05:54:30;8.77;;;7.80;;
68653;SDS011;55636;51.108;13.622;2023-08-20T05:55:32;8.95;;;8.05;;
68653;SDS011;55636;51.108;13.622;2023-08-20T05:56:35;9.77;;;8.43;;
68653;SDS011;55636;51.108;13.622;2023-08-20T05:57:37;10.23;;;8.35;;
68653;SDS011;55636;51.108;13.622;2023-08-20T05:58:40;10.85;;;9.00;;
68653;SDS011;55636;51.108;13.622;2023-08-20T05:59:43;10.07;;;8.23;;
68653;SDS011;55636;51.108;13.622;2023-08-20T06:00:46;9.23;;;8.30;;
68653;SDS011;55636;51.108;13.622;2023-08-20T06:01:49;9.35;;;8.40;;
68653;SDS011;55636;51.108;13.622;2023-08-20T06:02:51;9.52;;;8.38;;
68653;SDS011;55636;51.108;13.622;2023-08-20T06:03:53;10.43;;;8.52;;
68653;SDS011;55636;51.108;13.622;2023-08-20T06:04:56;8.77;;;7.97;;
68653;SDS011;55636;51.108;13.622;2023-08-20T06:05:58;9.38;;;8.48;;
68653;SDS011;55636;51.108;13.622;2023-08-20T06:07:05;8.98;;;8.05;;
68653;SDS011;55636;51.108;13.622;2023-08-20T06:08:07;8.93;;;8.13;;
68653;SDS011;55636;51.108;13.622;2023-08-20T06:09:10;11.88;;;9.07;;
68653;SDS011;55636;51.108;13.622;2023-08-20T06:10:12;9.18;;;8.27;;
68653;SDS011;55636;51.108;13.622;2023-08-20T06:11:14;8.82;;;7.93;;
68653;SDS011;55636;51.108;13.622;2023-08-20T06:12:17;8.85;;;8.00;;
68653;SDS011;55636;51.108;13.622;2023-08-20T06:13:19;9.43;;;8.40;;
68653;SDS011;55636;51.108;13.622;2023-08-20T06:14:22;8.57;;;7.68;;